Time;durP1;ratioP1;P1;durP2;ratioP2;P2;SDS_P1;SDS_P2;PMS_P1;PMS_P2;Temp;Humidity;BMP_temperature;BMP_pressure;BME280_temperature;BME280_humidity;BME280_pressure;Samples;Min_cycle;Max_cycle;Signal;HPM_P1;HPM_P2
2022/07/10 00:01:28;;;;;;;54.78;10.95;;;;;;;;;;4942294;29;20082;-57
2022/07/10 00:03:55;;;;;;;65.78;12.07;;;;;;;;;;4946451;29;20054;-57
2022/07/10 00:06:22;;;;;;;63.85;12.48;;;;;;;;;;4939948;29;20034;-56
2022/07/10 00:08:49;;;;;;;58.72;10.50;;;;;;;;;;4940087;28;20027;-57
2022/07/10 00:11:16;;;;;;;60.22;10.98;;;;;;;;;;4937059;29;20064;-57
2022/07/10 00:13:43;;;;;;;71.22;12.25;;;;;;;;;;4938840;29;20126;-60
2022/07/10 00:16:10;;;;;;;69.78;12.35;;;;;;;;;;4940156;29;20078;-57
2022/07/10 00:18:37;;;;;;;71.72;13.13;;;;;;;;;;4940729;29;20038;-59
2022/07/10 00:21:04;;;;;;;70.68;13.43;;;;;;;;;;4938269;29;20114;-57
2022/07/10 00:23:31;;;;;;;80.70;12.45;;;;;;;;;;4941557;28;20034;-57
2022/07/10 00:25:58;;;;;;;62.97;12.30;;;;;;;;;;4933100;28;20102;-57
2022/07/10 00:28:25;;;;;;;75.47;13.57;;;;;;;;;;4935785;29;20032;-61
2022/07/10 00:30:52;;;;;;;83.93;14.02;;;;;;;;;;4943469;28;20074;-57
2022/07/10 00:33:20;;;;;;;60.97;12.30;;;;;;;;;;4941995;29;20114;-59
2022/07/10 00:35:47;;;;;;;76.72;12.68;;;;;;;;;;4931158;29;20479;-56
2022/07/10 00:38:14;;;;;;;75.97;12.80;;;;;;;;;;4945881;29;20451;-58
2022/07/10 00:40:41;;;;;;;63.67;12.82;;;;;;;;;;4946539;29;20035;-57
2022/07/10 00:43:11;;;;;;;70.97;12.88;;;;;;;;;;4934064;29;20046;-58
2022/07/10 00:45:38;;;;;;;73.40;13.02;;;;;;;;;;4948078;29;20034;-59
2022/07/10 00:48:05;;;;;;;60.25;11.68;;;;;;;;;;4949542;28;20501;-59
2022/07/10 00:50:33;;;;;;;63.65;11.90;;;;;;;;;;4949246;29;20046;-59
2022/07/10 00:53:02;;;;;;;67.47;11.40;;;;;;;;;;4951251;29;20044;-59
2022/07/10 00:55:30;;;;;;;56.25;10.95;;;;;;;;;;4948266;29;20481;-60
2022/07/10 00:57:57;;;;;;;65.25;12.27;;;;;;;;;;4940332;29;20058;-61
2022/07/10 01:00:25;;;;;;;64.10;12.63;;;;;;;;;;4943879;29;20086;-59
2022/07/10 01:02:53;;;;;;;57.90;11.35;;;;;;;;;;4947082;28;20077;-59
2022/07/10 01:05:20;;;;;;;66.35;12.15;;;;;;;;;;4947761;29;20123;-58
2022/07/10 01:07:47;;;;;;;69.50;11.50;;;;;;;;;;4943026;28;20056;-58
2022/07/10 01:10:14;;;;;;;66.03;11.77;;;;;;;;;;4946800;29;20027;-57
2022/07/10 01:12:41;;;;;;;59.30;10.52;;;;;;;;;;4928242;29;20131;-58
2022/07/10 01:15:08;;;;;;;59.70;12.02;;;;;;;;;;4949110;29;20089;-59
2022/07/10 01:17:36;;;;;;;52.38;11.27;;;;;;;;;;4948530;29;20492;-58
2022/07/10 01:20:06;;;;;;;55.15;11.18;;;;;;;;;;4938344;29;20039;-58
2022/07/10 01:22:34;;;;;;;45.42;10.38;;;;;;;;;;4944545;29;20549;-59
2022/07/10 01:25:00;;;;;;;51.42;11.13;;;;;;;;;;4940863;28;20055;-58
2022/07/10 01:27:28;;;;;;;45.78;10.43;;;;;;;;;;4940532;29;20035;-61
2022/07/10 01:29:55;;;;;;;52.97;10.93;;;;;;;;;;4945769;29;20500;-61
2022/07/10 01:32:22;;;;;;;55.50;10.93;;;;;;;;;;4938928;29;20050;-61
2022/07/10 01:34:49;;;;;;;50.63;10.02;;;;;;;;;;4940336;29;20036;-61
2022/07/10 01:37:16;;;;;;;49.75;10.80;;;;;;;;;;4941385;29;20026;-61
2022/07/10 01:39:43;;;;;;;52.95;11.10;;;;;;;;;;4948255;29;20077;-61
2022/07/10 01:42:10;;;;;;;46.55;10.77;;;;;;;;;;4945950;29;20557;-61
2022/07/10 01:44:38;;;;;;;47.03;11.23;;;;;;;;;;4946417;29;20182;-61
2022/07/10 01:47:05;;;;;;;50.40;10.20;;;;;;;;;;4939272;29;20442;-61
2022/07/10 01:49:33;;;;;;;49.22;10.10;;;;;;;;;;4946663;29;20027;-61
2022/07/10 01:52:00;;;;;;;52.00;11.57;;;;;;;;;;4936849;29;20087;-61
2022/07/10 01:54:27;;;;;;;42.22;10.40;;;;;;;;;;4920974;29;20392;-60
2022/07/10 01:56:54;;;;;;;39.85;10.93;;;;;;;;;;4934760;29;20496;-60
2022/07/10 01:59:21;;;;;;;40.50;9.88;;;;;;;;;;4938195;29;20075;-59
2022/07/10 02:01:48;;;;;;;39.38;9.88;;;;;;;;;;4939295;29;20497;-60
2022/07/10 02:07:00;;;;;;;38.10;10.18;;;;;;;;;;4942843;28;20137;-60
2022/07/10 02:09:28;;;;;;;46.58;11.15;;;;;;;;;;4939314;29;20030;-62
2022/07/10 02:11:54;;;;;;;56.03;11.13;;;;;;;;;;4933817;29;20584;-63
2022/07/10 02:14:21;;;;;;;47.75;11.30;;;;;;;;;;4935541;29;20026;-61
2022/07/10 02:16:48;;;;;;;48.42;10.82;;;;;;;;;;4939951;29;20122;-61
2022/07/10 02:19:15;;;;;;;51.08;11.65;;;;;;;;;;4950141;29;20054;-59
2022/07/10 02:21:48;;;;;;;47.50;10.80;;;;;;;;;;4929036;29;20046;-60
2022/07/10 02:24:15;;;;;;;42.10;10.10;;;;;;;;;;4939456;29;20137;-61
2022/07/10 02:26:42;;;;;;;49.65;10.20;;;;;;;;;;4945960;29;20031;-61
2022/07/10 02:29:14;;;;;;;38.58;10.02;;;;;;;;;;4938388;29;20111;-61
2022/07/10 02:31:42;;;;;;;46.88;10.55;;;;;;;;;;4937649;29;20096;-60
2022/07/10 02:34:10;;;;;;;45.63;10.32;;;;;;;;;;4937347;29;20024;-61
2022/07/10 02:36:40;;;;;;;47.55;10.93;;;;;;;;;;4934621;29;20072;-60
2022/07/10 02:39:18;;;;;;;39.85;10.77;;;;;;;;;;4933956;29;20035;-61
2022/07/10 02:41:48;;;;;;;44.00;10.48;;;;;;;;;;4934017;28;20078;-61
2022/07/10 02:44:16;;;;;;;46.80;11.77;;;;;;;;;;4936411;29;20039;-60
2022/07/10 02:46:46;;;;;;;34.72;9.82;;;;;;;;;;4932485;29;20505;-61
2022/07/10 02:49:18;;;;;;;41.35;11.05;;;;;;;;;;4933285;29;20384;-60
2022/07/10 02:51:45;;;;;;;44.90;11.13;;;;;;;;;;4933459;29;20375;-60
2022/07/10 02:54:15;;;;;;;47.13;11.18;;;;;;;;;;4936395;29;20063;-60
2022/07/10 02:56:44;;;;;;;40.28;10.48;;;;;;;;;;4938298;29;20458;-61
2022/07/10 02:59:11;;;;;;;39.22;11.15;;;;;;;;;;4954874;29;20058;-60
2022/07/10 03:01:41;;;;;;;48.38;11.50;;;;;;;;;;4955898;29;20035;-59
2022/07/10 03:04:08;;;;;;;40.72;10.55;;;;;;;;;;4957359;29;20039;-60
2022/07/10 03:06:35;;;;;;;39.53;10.60;;;;;;;;;;4956365;29;20039;-59
2022/07/10 03:09:02;;;;;;;45.88;11.25;;;;;;;;;;4956122;29;20500;-60
2022/07/10 03:11:29;;;;;;;43.42;11.77;;;;;;;;;;4938939;29;20039;-60
2022/07/10 03:13:56;;;;;;;32.78;11.15;;;;;;;;;;4956159;29;20455;-60
2022/07/10 03:16:24;;;;;;;46.53;10.65;;;;;;;;;;4956061;29;20122;-60
2022/07/10 03:18:51;;;;;;;43.03;10.80;;;;;;;;;;4955992;29;20039;-60
2022/07/10 03:21:18;;;;;;;39.47;10.32;;;;;;;;;;4939773;29;20025;-59
2022/07/10 03:23:45;;;;;;;46.50;10.57;;;;;;;;;;4957639;29;20031;-60
2022/07/10 03:26:12;;;;;;;42.13;10.75;;;;;;;;;;4957045;29;20030;-60
2022/07/10 03:28:39;;;;;;;41.20;10.60;;;;;;;;;;4955919;29;20031;-61
2022/07/10 03:31:06;;;;;;;38.25;10.82;;;;;;;;;;4955860;29;20023;-60
2022/07/10 03:33:33;;;;;;;38.15;10.35;;;;;;;;;;4956558;29;20082;-59
2022/07/10 03:36:03;;;;;;;40.42;10.95;;;;;;;;;;4955621;29;20023;-60
2022/07/10 03:38:31;;;;;;;38.42;10.57;;;;;;;;;;4954100;29;20042;-59
2022/07/10 03:40:58;;;;;;;31.75;11.13;;;;;;;;;;4955785;29;20034;-58
2022/07/10 03:43:25;;;;;;;36.53;10.68;;;;;;;;;;4947364;29;20059;-58
2022/07/10 03:45:52;;;;;;;34.15;10.45;;;;;;;;;;4946775;29;20070;-58
2022/07/10 03:48:19;;;;;;;31.70;10.70;;;;;;;;;;4945956;29;20049;-58
2022/07/10 03:50:46;;;;;;;42.30;11.00;;;;;;;;;;4953506;29;20067;-58
2022/07/10 03:53:13;;;;;;;32.80;9.48;;;;;;;;;;4956579;29;20031;-58
2022/07/10 03:55:40;;;;;;;42.03;11.27;;;;;;;;;;4956659;29;20023;-58
2022/07/10 03:58:07;;;;;;;42.15;11.05;;;;;;;;;;4956927;29;20023;-57
2022/07/10 04:00:37;;;;;;;35.97;10.85;;;;;;;;;;4956451;29;20148;-58
2022/07/10 04:03:04;;;;;;;44.22;11.55;;;;;;;;;;4956223;29;20053;-58
2022/07/10 04:05:32;;;;;;;39.92;10.48;;;;;;;;;;4956503;28;20027;-58
2022/07/10 04:07:59;;;;;;;30.10;10.55;;;;;;;;;;4956937;29;20027;-58
2022/07/10 04:10:27;;;;;;;36.85;10.57;;;;;;;;;;4956150;29;20429;-57
2022/07/10 04:12:54;;;;;;;34.05;10.07;;;;;;;;;;4956459;29;20486;-58
2022/07/10 04:15:21;;;;;;;43.60;10.35;;;;;;;;;;4956625;29;20103;-58
2022/07/10 04:17:49;;;;;;;41.63;10.40;;;;;;;;;;4956132;29;20573;-58
2022/07/10 04:20:16;;;;;;;31.75;10.23;;;;;;;;;;4956023;29;20023;-58
2022/07/10 04:22:43;;;;;;;46.35;10.93;;;;;;;;;;4956268;29;20047;-58
2022/07/10 04:25:10;;;;;;;32.08;10.02;;;;;;;;;;4955790;29;20406;-58
2022/07/10 04:27:37;;;;;;;33.65;10.23;;;;;;;;;;4956419;29;20041;-58
2022/07/10 04:30:05;;;;;;;31.85;10.07;;;;;;;;;;4956148;29;20028;-58
2022/07/10 04:32:32;;;;;;;37.63;11.13;;;;;;;;;;4955658;29;20039;-58
2022/07/10 04:35:00;;;;;;;27.40;10.05;;;;;;;;;;4955766;29;20030;-58
2022/07/10 04:37:29;;;;;;;30.20;9.85;;;;;;;;;;4955894;29;20035;-58
2022/07/10 04:39:56;;;;;;;32.75;9.45;;;;;;;;;;4954207;29;20446;-58
2022/07/10 04:45:39;;;;;;;29.23;9.45;;;;;;;;;;4957233;29;20034;-58
2022/07/10 04:51:23;;;;;;;31.23;10.15;;;;;;;;;;4958154;29;20366;-58
2022/07/10 04:57:06;;;;;;;29.52;9.00;;;;;;;;;;4957301;29;20514;-58
2022/07/10 05:02:49;;;;;;;26.73;8.77;;;;;;;;;;4955343;29;20062;-58
2022/07/10 05:05:16;;;;;;;30.75;9.23;;;;;;;;;;4955126;29;20030;-57
2022/07/10 05:07:43;;;;;;;32.08;8.82;;;;;;;;;;4955051;29;20023;-58
2022/07/10 05:10:10;;;;;;;27.77;8.93;;;;;;;;;;4954726;29;20072;-57
2022/07/10 05:12:37;;;;;;;27.90;8.38;;;;;;;;;;4955191;29;20031;-58
2022/07/10 05:15:04;;;;;;;30.67;9.07;;;;;;;;;;4954487;29;20092;-57
2022/07/10 05:17:31;;;;;;;28.42;8.35;;;;;;;;;;4954505;28;20075;-57
2022/07/10 05:19:58;;;;;;;24.00;8.65;;;;;;;;;;4955079;29;20375;-57
2022/07/10 05:22:26;;;;;;;27.30;8.65;;;;;;;;;;4955080;29;20123;-57
2022/07/10 05:24:53;;;;;;;26.00;7.72;;;;;;;;;;4954492;29;20047;-57
2022/07/10 05:27:20;;;;;;;26.98;9.35;;;;;;;;;;4954475;29;20027;-57
2022/07/10 05:29:47;;;;;;;28.63;9.23;;;;;;;;;;4954621;29;20102;-58
2022/07/10 05:32:14;;;;;;;29.70;9.05;;;;;;;;;;4954423;29;20094;-57
2022/07/10 05:34:41;;;;;;;22.85;8.88;;;;;;;;;;4954897;29;20441;-58
2022/07/10 05:37:08;;;;;;;26.27;9.20;;;;;;;;;;4954488;29;20027;-56
2022/07/10 05:39:35;;;;;;;27.48;9.65;;;;;;;;;;4954579;29;20035;-56
2022/07/10 05:42:02;;;;;;;26.80;7.68;;;;;;;;;;4954351;29;20082;-57
2022/07/10 05:44:29;;;;;;;23.77;8.50;;;;;;;;;;4954847;29;20023;-58
2022/07/10 05:46:56;;;;;;;28.48;8.98;;;;;;;;;;4954081;29;20460;-57
2022/07/10 05:49:23;;;;;;;22.67;7.78;;;;;;;;;;4954671;29;20054;-56
2022/07/10 05:51:50;;;;;;;23.17;7.53;;;;;;;;;;4954021;29;20027;-56
2022/07/10 05:54:17;;;;;;;26.45;7.50;;;;;;;;;;4953947;29;20623;-58
2022/07/10 05:56:45;;;;;;;20.00;7.47;;;;;;;;;;4954132;29;20023;-55
2022/07/10 05:59:12;;;;;;;19.63;6.97;;;;;;;;;;4953421;29;20031;-58
2022/07/10 06:01:39;;;;;;;20.02;7.30;;;;;;;;;;4953930;29;20031;-57
2022/07/10 06:04:06;;;;;;;19.33;7.35;;;;;;;;;;4953997;29;20118;-57
2022/07/10 06:06:32;;;;;;;20.92;7.93;;;;;;;;;;4954267;29;20031;-57
2022/07/10 06:09:00;;;;;;;29.90;8.07;;;;;;;;;;4953351;29;20031;-57
2022/07/10 06:11:27;;;;;;;18.02;6.90;;;;;;;;;;4953696;29;20114;-54
2022/07/10 06:13:54;;;;;;;25.38;7.88;;;;;;;;;;4954060;29;20397;-56
2022/07/10 06:16:21;;;;;;;24.13;7.50;;;;;;;;;;4953332;29;20055;-57
2022/07/10 06:18:48;;;;;;;21.45;7.60;;;;;;;;;;4954185;29;20363;-56
2022/07/10 06:21:15;;;;;;;25.08;7.22;;;;;;;;;;4953518;29;20022;-57
2022/07/10 06:23:41;;;;;;;22.40;6.68;;;;;;;;;;4954046;29;20031;-57
2022/07/10 06:26:08;;;;;;;16.02;7.25;;;;;;;;;;4953616;29;20078;-57
2022/07/10 06:28:36;;;;;;;17.15;7.55;;;;;;;;;;4953435;28;20549;-56
2022/07/10 06:31:03;;;;;;;16.50;6.72;;;;;;;;;;4953815;29;20106;-57
2022/07/10 06:33:30;;;;;;;17.08;6.78;;;;;;;;;;4952693;29;20031;-57
2022/07/10 06:35:57;;;;;;;19.30;7.03;;;;;;;;;;4954281;29;20023;-54
2022/07/10 06:38:24;;;;;;;19.63;6.72;;;;;;;;;;4952994;29;20034;-55
2022/07/10 06:40:51;;;;;;;15.32;6.68;;;;;;;;;;4953847;29;20494;-56
2022/07/10 06:43:18;;;;;;;16.90;6.28;;;;;;;;;;4953277;29;20126;-53
2022/07/10 06:45:45;;;;;;;18.92;6.95;;;;;;;;;;4953422;29;20027;-57
2022/07/10 06:48:12;;;;;;;18.38;7.03;;;;;;;;;;4953728;29;20470;-57
2022/07/10 06:50:39;;;;;;;16.15;6.63;;;;;;;;;;4953452;29;20500;-57
2022/07/10 06:53:07;;;;;;;24.00;6.50;;;;;;;;;;4953692;29;20027;-55
2022/07/10 06:55:34;;;;;;;15.32;6.85;;;;;;;;;;4953684;29;20028;-57
2022/07/10 06:58:01;;;;;;;17.73;6.63;;;;;;;;;;4953158;29;20058;-57
2022/07/10 07:00:28;;;;;;;15.25;6.10;;;;;;;;;;4953539;29;20517;-57
2022/07/10 07:02:55;;;;;;;15.93;6.35;;;;;;;;;;4952689;29;20122;-57
2022/07/10 07:05:22;;;;;;;16.55;6.10;;;;;;;;;;4953369;29;20030;-55
2022/07/10 07:07:50;;;;;;;15.25;6.00;;;;;;;;;;4953728;29;20054;-57
2022/07/10 07:10:17;;;;;;;14.68;5.82;;;;;;;;;;4953193;29;20074;-54
2022/07/10 07:12:44;;;;;;;15.32;5.63;;;;;;;;;;4953347;29;20486;-56
2022/07/10 07:15:11;;;;;;;17.08;6.45;;;;;;;;;;4952768;29;20154;-55
2022/07/10 07:18:16;;;;;;;15.88;6.13;;;;;;;;;;4953463;29;20056;-56
2022/07/10 07:23:20;;;;;;;17.45;5.80;;;;;;;;;;4953576;29;20573;-57
2022/07/10 07:25:47;;;;;;;12.20;5.28;;;;;;;;;;4952717;29;20074;-55
2022/07/10 07:28:15;;;;;;;17.88;5.97;;;;;;;;;;4952838;29;20552;-57
2022/07/10 07:30:45;;;;;;;12.80;5.03;;;;;;;;;;4953493;29;20386;-57
2022/07/10 07:33:12;;;;;;;11.23;5.25;;;;;;;;;;4953199;29;20059;-57
2022/07/10 07:35:40;;;;;;;15.60;5.65;;;;;;;;;;4953029;29;20367;-55
2022/07/10 07:38:07;;;;;;;15.88;5.85;;;;;;;;;;4952983;29;20030;-55
2022/07/10 07:40:37;;;;;;;14.48;5.70;;;;;;;;;;4955336;28;20087;-56
2022/07/10 07:43:04;;;;;;;15.70;5.78;;;;;;;;;;4956384;29;20097;-57
2022/07/10 07:45:31;;;;;;;15.52;5.57;;;;;;;;;;4957042;29;20038;-57
2022/07/10 07:47:59;;;;;;;10.43;4.80;;;;;;;;;;4956142;29;20035;-56
2022/07/10 07:50:44;;;;;;;16.73;5.57;;;;;;;;;;4956565;29;20042;-55
2022/07/10 07:53:11;;;;;;;13.07;5.18;;;;;;;;;;4956400;29;20130;-56
2022/07/10 07:55:39;;;;;;;15.48;5.50;;;;;;;;;;4955965;29;20486;-56
2022/07/10 07:58:06;;;;;;;11.82;5.30;;;;;;;;;;4956756;29;20045;-57
2022/07/10 08:00:33;;;;;;;12.75;5.45;;;;;;;;;;4956081;29;20393;-58
2022/07/10 08:03:01;;;;;;;9.23;4.65;;;;;;;;;;4956336;29;20098;-55
2022/07/10 08:05:28;;;;;;;17.50;5.35;;;;;;;;;;4956040;29;20019;-55
2022/07/10 08:07:56;;;;;;;14.32;4.90;;;;;;;;;;4956413;29;20494;-56
2022/07/10 08:10:26;;;;;;;10.05;4.57;;;;;;;;;;4956677;29;20533;-53
2022/07/10 08:12:53;;;;;;;13.88;4.70;;;;;;;;;;4955470;29;20042;-56
2022/07/10 08:15:23;;;;;;;11.15;4.68;;;;;;;;;;4956133;29;20058;-57
2022/07/10 08:17:51;;;;;;;12.10;4.60;;;;;;;;;;4955865;29;20047;-57
2022/07/10 08:20:19;;;;;;;11.93;5.05;;;;;;;;;;4955924;29;20023;-56
2022/07/10 08:22:48;;;;;;;13.93;4.57;;;;;;;;;;4955040;29;20087;-56
2022/07/10 08:25:15;;;;;;;14.65;5.35;;;;;;;;;;4956900;29;20046;-57
2022/07/10 08:27:42;;;;;;;16.25;4.82;;;;;;;;;;4957361;29;20023;-57
2022/07/10 08:30:09;;;;;;;12.27;4.50;;;;;;;;;;4956604;29;20082;-55
2022/07/10 08:32:37;;;;;;;14.00;5.47;;;;;;;;;;4955314;29;20031;-58
2022/07/10 08:35:05;;;;;;;11.32;4.72;;;;;;;;;;4956315;29;20023;-57
2022/07/10 08:37:37;;;;;;;11.73;4.72;;;;;;;;;;4956046;29;20027;-56
2022/07/10 08:40:05;;;;;;;11.23;4.50;;;;;;;;;;4956195;29;20027;-57
2022/07/10 08:42:33;;;;;;;9.35;4.43;;;;;;;;;;4955320;29;20055;-56
2022/07/10 08:45:00;;;;;;;10.68;4.20;;;;;;;;;;4938753;29;20035;-56
2022/07/10 08:47:31;;;;;;;11.45;4.45;;;;;;;;;;4955624;29;20023;-57
2022/07/10 08:49:58;;;;;;;19.25;4.40;;;;;;;;;;4955848;29;20063;-56
2022/07/10 08:52:32;;;;;;;10.43;4.63;;;;;;;;;;4955365;28;20051;-57
2022/07/10 08:55:00;;;;;;;10.23;4.20;;;;;;;;;;4955325;29;20102;-57
2022/07/10 08:57:29;;;;;;;10.15;4.00;;;;;;;;;;4955246;29;20409;-55
2022/07/10 08:59:56;;;;;;;10.52;4.18;;;;;;;;;;4955677;29;20031;-57
2022/07/10 09:02:23;;;;;;;7.85;4.00;;;;;;;;;;4956022;29;20086;-55
2022/07/10 09:04:50;;;;;;;11.82;4.38;;;;;;;;;;4955045;29;20026;-57
2022/07/10 09:07:18;;;;;;;9.50;4.13;;;;;;;;;;4955357;29;20089;-57
2022/07/10 09:09:55;;;;;;;10.88;4.15;;;;;;;;;;4955515;29;20131;-57
2022/07/10 09:12:22;;;;;;;9.00;4.30;;;;;;;;;;4955306;29;20028;-58
2022/07/10 09:14:50;;;;;;;7.88;3.83;;;;;;;;;;4954971;29;20488;-57
2022/07/10 09:17:17;;;;;;;9.35;4.32;;;;;;;;;;4954793;29;20501;-57
2022/07/10 09:19:44;;;;;;;9.45;4.15;;;;;;;;;;4955212;29;20552;-55
2022/07/10 09:22:12;;;;;;;8.02;3.70;;;;;;;;;;4954726;29;20035;-57
2022/07/10 09:24:47;;;;;;;12.18;3.92;;;;;;;;;;4955696;29;20031;-57
2022/07/10 09:27:15;;;;;;;11.40;3.90;;;;;;;;;;4954708;29;20023;-57
2022/07/10 09:29:50;;;;;;;14.77;3.85;;;;;;;;;;4955413;29;20887;-57
2022/07/10 09:32:17;;;;;;;9.10;4.00;;;;;;;;;;4955026;29;20174;-57
2022/07/10 09:34:45;;;;;;;7.90;3.70;;;;;;;;;;4954692;29;20027;-55
2022/07/10 09:37:22;;;;;;;9.68;3.47;;;;;;;;;;4954843;29;20034;-57
2022/07/10 09:40:05;;;;;;;14.20;4.10;;;;;;;;;;4954948;29;20741;-56
2022/07/10 09:42:32;;;;;;;8.65;3.95;;;;;;;;;;4954117;29;20175;-57
2022/07/10 09:45:17;;;;;;;12.13;4.32;;;;;;;;;;4954033;29;20038;-56
2022/07/10 09:47:45;;;;;;;9.13;3.67;;;;;;;;;;4953981;29;20039;-57
2022/07/10 09:50:28;;;;;;;11.88;3.97;;;;;;;;;;4954260;29;20101;-56
2022/07/10 09:52:56;;;;;;;8.35;4.13;;;;;;;;;;4954500;29;20106;-57
2022/07/10 09:55:26;;;;;;;10.18;3.60;;;;;;;;;;4954342;29;20035;-54
2022/07/10 09:57:57;;;;;;;9.23;4.13;;;;;;;;;;4955016;29;20079;-57
2022/07/10 10:00:25;;;;;;;9.27;3.65;;;;;;;;;;4953973;29;20039;-55
2022/07/10 10:02:55;;;;;;;9.88;3.72;;;;;;;;;;4954726;28;20146;-57
2022/07/10 10:05:25;;;;;;;8.00;3.83;;;;;;;;;;4954119;29;20118;-56
2022/07/10 10:07:52;;;;;;;8.23;3.45;;;;;;;;;;4954773;29;20031;-57
2022/07/10 10:10:21;;;;;;;8.00;3.60;;;;;;;;;;4954384;29;20142;-57
2022/07/10 10:12:53;;;;;;;10.20;3.60;;;;;;;;;;4954760;29;20371;-54
2022/07/10 10:15:19;;;;;;;;;;;;;;;;;;4954298;29;20509;-57
2022/07/10 10:17:46;;;;;;;7.13;3.28;;;;;;;;;;4953688;29;20403;-57
2022/07/10 10:23:01;;;;;;;10.52;3.40;;;;;;;;;;4954308;29;20626;-57
2022/07/10 10:25:29;;;;;;;8.20;3.25;;;;;;;;;;4937419;29;20074;-56
2022/07/10 10:27:56;;;;;;;6.18;3.40;;;;;;;;;;4953725;29;20031;-57
2022/07/10 10:30:24;;;;;;;9.00;3.50;;;;;;;;;;4954401;29;20521;-57
2022/07/10 10:32:50;;;;;;;8.27;3.15;;;;;;;;;;4954214;29;20046;-57
2022/07/10 10:35:41;;;;;;;5.97;2.60;;;;;;;;;;4953986;29;20098;-55
2022/07/10 10:38:08;;;;;;;6.72;2.80;;;;;;;;;;4949325;29;20498;-56
2022/07/10 10:40:36;;;;;;;5.35;2.70;;;;;;;;;;4953240;29;20035;-57
2022/07/10 10:43:19;;;;;;;9.00;3.42;;;;;;;;;;4953364;29;20062;-54
2022/07/10 10:45:49;;;;;;;5.80;2.78;;;;;;;;;;4954144;29;20092;-57
2022/07/10 10:48:17;;;;;;;7.47;3.10;;;;;;;;;;4936572;29;20027;-55
2022/07/10 10:50:51;;;;;;;7.47;2.80;;;;;;;;;;4937139;29;20035;-56
2022/07/10 10:53:28;;;;;;;6.32;2.70;;;;;;;;;;4953629;29;20391;-57
2022/07/10 10:56:01;;;;;;;5.47;2.40;;;;;;;;;;4953756;29;20498;-55
2022/07/10 10:58:29;;;;;;;6.68;2.63;;;;;;;;;;4953764;29;20486;-57
2022/07/10 11:01:05;;;;;;;8.30;2.88;;;;;;;;;;4953373;29;20034;-55
2022/07/10 11:03:33;;;;;;;7.78;2.55;;;;;;;;;;4952810;29;20039;-56
2022/07/10 11:06:02;;;;;;;7.93;2.55;;;;;;;;;;4953342;29;20082;-57
2022/07/10 11:08:43;;;;;;;4.97;2.38;;;;;;;;;;4950728;29;20494;-57
2022/07/10 11:11:28;;;;;;;3.70;2.35;;;;;;;;;;4950982;29;20121;-53
2022/07/10 11:13:58;;;;;;;5.05;2.30;;;;;;;;;;4952431;28;20032;-57
2022/07/10 11:16:25;;;;;;;4.68;2.13;;;;;;;;;;4956766;29;20046;-56
2022/07/10 11:18:55;;;;;;;5.30;2.10;;;;;;;;;;4957425;29;20035;-57
2022/07/10 11:21:23;;;;;;;4.35;2.22;;;;;;;;;;4937847;29;20030;-56
2022/07/10 11:24:23;;;;;;;11.38;2.58;;;;;;;;;;4953015;28;20046;-51
2022/07/10 11:26:59;;;;;;;10.10;2.63;;;;;;;;;;4943691;28;20043;-57
2022/07/10 11:29:26;;;;;;;7.00;2.60;;;;;;;;;;4975951;28;20085;-58
2022/07/10 11:31:54;;;;;;;7.78;2.10;;;;;;;;;;4976226;28;20092;-57
2022/07/10 11:34:22;;;;;;;5.55;2.20;;;;;;;;;;4974843;28;20034;-53
2022/07/10 11:36:49;;;;;;;6.53;1.90;;;;;;;;;;4956118;28;20508;-57
2022/07/10 11:39:16;;;;;;;3.75;1.92;;;;;;;;;;4956869;29;20385;-60
2022/07/10 11:41:47;;;;;;;8.05;2.17;;;;;;;;;;4956203;29;20038;-54
2022/07/10 11:44:18;;;;;;;6.05;2.10;;;;;;;;;;4956497;29;20027;-56
2022/07/10 11:46:48;;;;;;;7.65;2.10;;;;;;;;;;4954567;29;20043;-56
2022/07/10 11:49:17;;;;;;;8.00;2.10;;;;;;;;;;4953265;29;20043;-57
2022/07/10 11:51:44;;;;;;;6.47;2.03;;;;;;;;;;4956122;29;20082;-58
2022/07/10 11:54:13;;;;;;;3.30;1.50;;;;;;;;;;4956021;29;20032;-58
2022/07/10 11:56:44;;;;;;;10.23;2.10;;;;;;;;;;4955971;29;20094;-59
2022/07/10 11:59:12;;;;;;;7.78;1.90;;;;;;;;;;4955463;29;20038;-61
2022/07/10 12:01:43;;;;;;;9.48;1.90;;;;;;;;;;4956397;29;20031;-60
2022/07/10 12:04:10;;;;;;;9.60;2.30;;;;;;;;;;4956195;29;20536;-57
2022/07/10 12:06:40;;;;;;;4.45;1.67;;;;;;;;;;4954624;29;20065;-59
2022/07/10 12:09:08;;;;;;;4.60;1.75;;;;;;;;;;4956670;29;20024;-57
2022/07/10 12:11:36;;;;;;;5.03;2.20;;;;;;;;;;4955782;29;20027;-58
2022/07/10 12:14:19;;;;;;;9.90;1.98;;;;;;;;;;4956212;29;20031;-61
2022/07/10 12:16:47;;;;;;;5.05;1.65;;;;;;;;;;4954736;29;20130;-62
2022/07/10 12:19:15;;;;;;;8.85;1.70;;;;;;;;;;4955286;29;20043;-62
2022/07/10 12:21:46;;;;;;;6.65;1.75;;;;;;;;;;4955733;29;20090;-61
2022/07/10 12:24:14;;;;;;;10.00;1.50;;;;;;;;;;4955562;29;20039;-57
2022/07/10 12:26:44;;;;;;;9.20;1.60;;;;;;;;;;4954203;28;20035;-57
2022/07/10 12:29:21;;;;;;;7.60;1.77;;;;;;;;;;4953786;29;20519;-60
2022/07/10 12:31:50;;;;;;;5.85;1.70;;;;;;;;;;4955860;29;20027;-58
2022/07/10 12:34:17;;;;;;;11.57;2.13;;;;;;;;;;4954844;29;20059;-57
2022/07/10 12:36:49;;;;;;;10.65;1.80;;;;;;;;;;4955221;29;20027;-56
2022/07/10 12:39:17;;;;;;;5.43;1.42;;;;;;;;;;4953997;29;20031;-56
2022/07/10 12:42:03;;;;;;;6.82;1.52;;;;;;;;;;4955652;29;20031;-58
2022/07/10 12:44:50;;;;;;;20.67;3.58;;;;;;;;;;4954894;29;20027;-61
2022/07/10 12:47:19;;;;;;;20.08;3.15;;;;;;;;;;4954260;29;20031;-60
2022/07/10 12:49:58;;;;;;;32.22;4.18;;;;;;;;;;4953171;29;20081;-61
2022/07/10 12:52:29;;;;;;;15.32;2.30;;;;;;;;;;4954032;29;20043;-62
2022/07/10 12:55:09;;;;;;;10.27;2.03;;;;;;;;;;4935082;29;20035;-61
2022/07/10 12:58:05;;;;;;;16.30;2.50;;;;;;;;;;4951570;29;20042;-60
2022/07/10 13:00:34;;;;;;;10.02;2.00;;;;;;;;;;4944519;29;20046;-62
2022/07/10 13:03:05;;;;;;;7.78;1.80;;;;;;;;;;4953945;29;20122;-59
2022/07/10 13:05:33;;;;;;;13.02;2.15;;;;;;;;;;4936334;29;20116;-62
2022/07/10 13:08:13;;;;;;;8.10;2.00;;;;;;;;;;4952412;29;20389;-62
2022/07/10 13:10:42;;;;;;;;;;;;;;;;;;4934434;29;20098;-61
2022/07/10 13:13:10;;;;;;;8.73;1.83;;;;;;;;;;4952956;29;19910;-60
2022/07/10 13:15:49;;;;;;;19.33;2.97;;;;;;;;;;4951714;29;20409;-61
2022/07/10 13:18:17;;;;;;;16.45;2.25;;;;;;;;;;4951606;29;20186;-58
2022/07/10 13:20:45;;;;;;;17.20;2.08;;;;;;;;;;4953819;29;20402;-53
2022/07/10 13:23:12;;;;;;;10.63;1.50;;;;;;;;;;4953155;29;20047;-58
2022/07/10 13:25:39;;;;;;;10.70;1.50;;;;;;;;;;4953127;29;20590;-55
2022/07/10 13:28:07;;;;;;;13.43;2.10;;;;;;;;;;4953385;29;20023;-57
2022/07/10 13:30:34;;;;;;;11.63;1.65;;;;;;;;;;4954482;29;20046;-57
2022/07/10 13:33:01;;;;;;;7.65;1.90;;;;;;;;;;4954714;29;20375;-56
2022/07/10 13:35:29;;;;;;;13.45;1.73;;;;;;;;;;4953447;29;20035;-56
2022/07/10 13:37:59;;;;;;;14.07;1.88;;;;;;;;;;4953782;28;20528;-57
2022/07/10 13:40:33;;;;;;;10.35;1.70;;;;;;;;;;4953877;29;20046;-54
2022/07/10 13:43:00;;;;;;;10.82;1.88;;;;;;;;;;4954129;29;20036;-57
2022/07/10 13:45:32;;;;;;;13.85;1.67;;;;;;;;;;4954865;29;20098;-57
2022/07/10 13:47:59;;;;;;;10.57;1.65;;;;;;;;;;4948854;29;20117;-57
2022/07/10 13:50:26;;;;;;;8.32;1.70;;;;;;;;;;4943893;29;20035;-57
2022/07/10 13:52:53;;;;;;;11.60;1.77;;;;;;;;;;4944732;29;20053;-56
2022/07/10 13:55:20;;;;;;;10.68;1.50;;;;;;;;;;4950164;29;20031;-58
2022/07/10 13:57:47;;;;;;;11.38;1.95;;;;;;;;;;4947438;29;20408;-58
2022/07/10 14:00:14;;;;;;;18.30;2.22;;;;;;;;;;4939706;29;20422;-57
2022/07/10 14:03:07;;;;;;;11.93;2.00;;;;;;;;;;4941635;23;20490;31
2022/07/10 14:05:34;;;;;;;9.68;1.52;;;;;;;;;;4919272;29;20122;-56
2022/07/10 14:08:02;;;;;;;10.23;1.35;;;;;;;;;;4920352;29;20031;-56
2022/07/10 14:10:29;;;;;;;15.18;1.50;;;;;;;;;;4917780;29;20401;-57
2022/07/10 14:12:56;;;;;;;10.50;1.58;;;;;;;;;;4927241;29;20042;-58
2022/07/10 14:15:23;;;;;;;12.55;1.55;;;;;;;;;;4926373;29;20512;-57
2022/07/10 14:17:51;;;;;;;10.93;1.70;;;;;;;;;;4918896;29;20103;-58
2022/07/10 14:20:18;;;;;;;9.95;1.52;;;;;;;;;;4919255;29;20386;-57
2022/07/10 14:22:46;;;;;;;9.07;1.45;;;;;;;;;;4921581;29;20071;-55
2022/07/10 14:25:13;;;;;;;8.43;1.40;;;;;;;;;;4920247;29;20055;-58
2022/07/10 14:27:40;;;;;;;8.30;1.65;;;;;;;;;;4917003;29;20063;-56
2022/07/10 14:30:08;;;;;;;13.57;2.00;;;;;;;;;;4920007;29;20028;-57
2022/07/10 14:32:35;;;;;;;13.98;2.10;;;;;;;;;;4926193;29;20032;-59
2022/07/10 14:35:02;;;;;;;5.88;1.52;;;;;;;;;;4920935;29;20475;-59
2022/07/10 14:37:31;;;;;;;15.45;2.17;;;;;;;;;;4922548;29;20032;-61
2022/07/10 14:39:58;;;;;;;11.48;1.80;;;;;;;;;;4924411;29;20070;-60
2022/07/10 14:42:25;;;;;;;9.07;1.83;;;;;;;;;;4922664;29;20042;-56
2022/07/10 14:44:52;;;;;;;12.50;1.90;;;;;;;;;;4914644;29;22406;-57
2022/07/10 14:47:20;;;;;;;9.18;1.88;;;;;;;;;;4916171;29;20043;-60
2022/07/10 14:49:47;;;;;;;14.02;1.80;;;;;;;;;;4917586;29;20565;-58
2022/07/10 14:52:16;;;;;;;14.13;1.80;;;;;;;;;;4914046;29;20038;-58
2022/07/10 14:54:43;;;;;;;12.93;1.60;;;;;;;;;;4925645;29;20035;-59
2022/07/10 14:57:12;;;;;;;25.10;2.80;;;;;;;;;;4921777;29;20454;-59
2022/07/10 14:59:39;;;;;;;20.35;2.20;;;;;;;;;;4916978;29;20114;-60
2022/07/10 15:02:07;;;;;;;26.30;2.25;;;;;;;;;;4923439;29;20074;-59